KBCE/BCE METAR and TAF weather

Enter ICAO airport designator
Station Type Date Time Source
KBCE METAR 2019/02/23 16:53 UTC NOAA

KBCE 231653Z AUTO 00000KT 10SM CLR M19/M22 A3011 RMK AO2 SLP280 T11941217


Station Type Date Time Source
KBCE Decoded METAR 2019/02/23 16:53 UTC NOAA

BRYCE CANYON AIRPORT, UT, United States (KBCE) 37-42N 112-09W 2312M
Feb 23, 2019 - 11:53 AM EST / 2019.02.23 1653 UTC
Wind: Calm:0
Visibility: 10 mile(s):0
Sky conditions: clear
Temperature: -2.9 F (-19.4 C)
Dew Point: -7.1 F (-21.7 C)
Relative Humidity: 81%
Pressure (altimeter): 30.11 in. Hg (1019 hPa)
ob: KBCE 231653Z AUTO 00000KT 10SM CLR M19/M22 A3011 RMK AO2 SLP280 T11941217
cycle: 17

Station Type Date Time Source
KBCE TAF 2019/02/23 12:22 UTC NOAA

TAF KBCE 231120Z 2312/2412 33012KT P6SM FEW010
FM231600 28012KT P6SM SKC
FM240100 27006KT P6SM SKC


Example: see airport list